createdAt,value
2018-12-30T00:00:23.493Z,1026.93
2018-12-30T00:01:04.387Z,1026.9
2018-12-30T00:01:45.238Z,1026.91
2018-12-30T00:02:25.911Z,1026.91
2018-12-30T00:03:06.604Z,1026.91
2018-12-30T00:03:47.628Z,1026.91
2018-12-30T00:04:28.465Z,1026.89
2018-12-30T00:05:09.158Z,1026.89
2018-12-30T00:05:50.129Z,1026.9
2018-12-30T00:06:30.978Z,1026.91
2018-12-30T00:07:11.741Z,1026.92
2018-12-30T00:07:52.515Z,1026.91
2018-12-30T00:08:33.290Z,1026.9
2018-12-30T00:09:14.036Z,1026.86
2018-12-30T00:09:54.872Z,1026.88
2018-12-30T00:10:35.752Z,1026.89
2018-12-30T00:11:16.630Z,1026.93
2018-12-30T00:11:57.502Z,1026.97
2018-12-30T00:12:38.344Z,1026.91
2018-12-30T00:13:19.183Z,1026.92
2018-12-30T00:14:00.187Z,1026.96
2018-12-30T00:14:40.972Z,1026.92
2018-12-30T00:15:21.770Z,1026.97
2018-12-30T00:16:02.554Z,1026.97
2018-12-30T00:16:43.411Z,1026.97
2018-12-30T00:17:24.202Z,1026.99
2018-12-30T00:18:05.038Z,1026.96
2018-12-30T00:18:45.990Z,1026.98
2018-12-30T00:19:26.676Z,1026.98
2018-12-30T00:20:07.603Z,1026.96
2018-12-30T00:20:48.499Z,1026.99
2018-12-30T00:21:29.467Z,1026.99
2018-12-30T00:22:10.927Z,1026.99
2018-12-30T00:22:51.610Z,1026.92
2018-12-30T00:23:32.378Z,1026.94
2018-12-30T00:24:13.215Z,1026.92
2018-12-30T00:24:54.162Z,1026.94
2018-12-30T00:25:34.899Z,1026.93
2018-12-30T00:26:16.033Z,1026.93
2018-12-30T00:26:56.964Z,1026.94
2018-12-30T00:27:37.635Z,1026.9
2018-12-30T00:28:18.493Z,1026.92
2018-12-30T00:28:59.303Z,1026.91
2018-12-30T00:29:40.107Z,1026.91
2018-12-30T00:30:20.914Z,1026.9
2018-12-30T00:31:01.674Z,1026.92
2018-12-30T00:31:42.643Z,1026.92
2018-12-30T00:32:23.597Z,1026.91
2018-12-30T00:33:04.427Z,1026.96
2018-12-30T00:33:45.258Z,1026.93
2018-12-30T00:34:26.005Z,1026.94
2018-12-30T00:35:06.725Z,1026.97
2018-12-30T00:35:47.711Z,1026.95
2018-12-30T00:36:28.542Z,1026.97
2018-12-30T00:37:09.386Z,1026.96
2018-12-30T00:37:50.238Z,1026.97
2018-12-30T00:38:30.969Z,1026.96
2018-12-30T00:39:11.867Z,1026.95
2018-12-30T00:39:52.732Z,1026.9
2018-12-30T00:40:33.521Z,1026.9
2018-12-30T00:41:14.266Z,1026.94
2018-12-30T00:41:55.166Z,1026.92
2018-12-30T00:42:36.084Z,1026.88
2018-12-30T00:43:16.873Z,1026.87
2018-12-30T00:43:57.696Z,1026.89
2018-12-30T00:44:38.617Z,1026.91
2018-12-30T00:45:19.302Z,1026.91
2018-12-30T00:46:00.042Z,1026.89
2018-12-30T00:46:40.791Z,1026.87
2018-12-30T00:47:21.666Z,1026.88
2018-12-30T00:48:02.520Z,1026.84
2018-12-30T00:48:43.394Z,1026.84
2018-12-30T00:49:24.313Z,1026.84
2018-12-30T00:50:05.137Z,1026.83
2018-12-30T00:50:45.956Z,1026.84
2018-12-30T00:51:26.864Z,1026.83
2018-12-30T00:52:07.558Z,1026.85
2018-12-30T00:52:48.342Z,1026.81
2018-12-30T00:53:29.161Z,1026.78
2018-12-30T00:54:10.062Z,1026.77
2018-12-30T00:54:51.028Z,1026.8
2018-12-30T00:55:31.858Z,1026.75
2018-12-30T00:56:12.601Z,1026.77
2018-12-30T00:56:53.782Z,1026.75
2018-12-30T00:57:34.780Z,1026.77
2018-12-30T00:58:15.415Z,1026.76
2018-12-30T00:58:56.307Z,1026.73
2018-12-30T00:59:37.159Z,1026.74
2018-12-30T01:00:17.963Z,1026.74
2018-12-30T01:00:58.750Z,1026.72
2018-12-30T01:01:39.528Z,1026.71
2018-12-30T01:02:20.373Z,1026.73
2018-12-30T01:03:01.222Z,1026.71
2018-12-30T01:03:42.457Z,1026.73
2018-12-30T01:04:22.999Z,1026.72
2018-12-30T01:05:03.923Z,1026.71
2018-12-30T01:05:44.754Z,1026.7
2018-12-30T01:06:25.667Z,1026.72
2018-12-30T01:07:06.440Z,1026.71
2018-12-30T01:07:47.507Z,1026.66
2018-12-30T01:08:28.253Z,1026.67
2018-12-30T01:09:09.136Z,1026.69
2018-12-30T01:09:49.927Z,1026.71
2018-12-30T01:10:30.831Z,1026.73
2018-12-30T01:11:11.652Z,1026.7
2018-12-30T01:11:52.390Z,1026.72
2018-12-30T01:12:33.219Z,1026.7
2018-12-30T01:13:14.691Z,1026.69
2018-12-30T01:13:55.527Z,1026.69
2018-12-30T01:14:36.214Z,1026.69
2018-12-30T01:15:17.035Z,1026.71
2018-12-30T01:15:57.896Z,1026.72
2018-12-30T01:16:38.809Z,1026.72
2018-12-30T01:17:19.601Z,1026.7
2018-12-30T01:18:00.392Z,1026.68
2018-12-30T01:18:41.136Z,1026.67
2018-12-30T01:19:21.926Z,1026.69
2018-12-30T01:20:02.743Z,1026.66
2018-12-30T01:20:43.922Z,1026.65
2018-12-30T01:21:25.230Z,1026.65
2018-12-30T01:22:05.848Z,1026.63
2018-12-30T01:22:46.694Z,1026.64
2018-12-30T01:23:27.802Z,1026.63
2018-12-30T01:24:08.958Z,1026.61
2018-12-30T01:24:49.747Z,1026.59
2018-12-30T01:25:30.458Z,1026.62
2018-12-30T01:26:11.283Z,1026.63
2018-12-30T01:26:52.155Z,1026.61
2018-12-30T01:27:33.081Z,1026.61
2018-12-30T01:28:13.892Z,1026.62
2018-12-30T01:28:54.660Z,1026.65
2018-12-30T01:29:35.427Z,1026.65
2018-12-30T01:30:16.113Z,1026.62
2018-12-30T01:30:56.941Z,1026.6
2018-12-30T01:31:37.785Z,1026.64
2018-12-30T01:32:18.696Z,1026.62
2018-12-30T01:32:59.635Z,1026.64
2018-12-30T01:33:40.462Z,1026.62
2018-12-30T01:34:21.312Z,1026.65
2018-12-30T01:35:02.105Z,1026.67
2018-12-30T01:35:42.943Z,1026.6
2018-12-30T01:36:23.854Z,1026.6
2018-12-30T01:37:04.722Z,1026.58
2018-12-30T01:37:45.561Z,1026.56
2018-12-30T01:38:26.435Z,1026.51
2018-12-30T01:39:07.204Z,1026.57
2018-12-30T01:39:48.081Z,1026.55
2018-12-30T01:40:28.891Z,1026.51
2018-12-30T01:41:09.675Z,1026.56
2018-12-30T01:41:50.549Z,1026.61
2018-12-30T01:42:31.401Z,1026.58
2018-12-30T01:43:12.250Z,1026.58
2018-12-30T01:43:53.066Z,1026.58
2018-12-30T01:44:33.807Z,1026.59
2018-12-30T01:45:14.555Z,1026.58
2018-12-30T01:45:55.406Z,1026.56
2018-12-30T01:46:36.392Z,1026.55
2018-12-30T01:47:17.223Z,1026.53
2018-12-30T01:47:58.090Z,1026.57
2018-12-30T01:48:38.934Z,1026.57
2018-12-30T01:49:19.840Z,1026.6
2018-12-30T01:50:00.796Z,1026.61
2018-12-30T01:50:41.598Z,1026.63
2018-12-30T01:51:22.514Z,1026.64
2018-12-30T01:52:03.342Z,1026.62
2018-12-30T01:52:44.288Z,1026.65
2018-12-30T01:53:25.060Z,1026.66
2018-12-30T01:54:05.794Z,1026.64
2018-12-30T01:54:46.541Z,1026.63
2018-12-30T01:55:27.385Z,1026.6
2018-12-30T01:56:08.201Z,1026.63
2018-12-30T01:56:48.992Z,1026.61
2018-12-30T01:57:29.776Z,1026.62
2018-12-30T01:58:10.650Z,1026.68
2018-12-30T01:58:51.564Z,1026.64
2018-12-30T01:59:32.413Z,1026.66
2018-12-30T02:00:13.183Z,1026.64
2018-12-30T02:00:54.127Z,1026.65
2018-12-30T02:01:34.972Z,1026.65
2018-12-30T02:02:15.901Z,1026.61
2018-12-30T02:02:56.735Z,1026.65
2018-12-30T02:03:37.473Z,1026.61
2018-12-30T02:04:18.200Z,1026.59
2018-12-30T02:04:58.996Z,1026.58
2018-12-30T02:05:39.947Z,1026.58
2018-12-30T02:06:20.558Z,1026.56
2018-12-30T02:07:01.352Z,1026.55
2018-12-30T02:07:42.300Z,1026.53
2018-12-30T02:08:23.154Z,1026.53
2018-12-30T02:09:04.084Z,1026.53
2018-12-30T02:09:44.933Z,1026.55
2018-12-30T02:10:25.763Z,1026.55
2018-12-30T02:11:06.551Z,1026.53
2018-12-30T02:11:47.363Z,1026.57
2018-12-30T02:12:28.210Z,1026.54
2018-12-30T02:13:08.954Z,1026.58
2018-12-30T02:13:49.744Z,1026.58
2018-12-30T02:14:30.672Z,1026.65
2018-12-30T02:15:11.518Z,1026.61
2018-12-30T02:15:52.271Z,1026.64
2018-12-30T02:16:33.040Z,1026.61
2018-12-30T02:17:13.918Z,1026.59
2018-12-30T02:17:54.751Z,1026.61
2018-12-30T02:18:35.530Z,1026.59
2018-12-30T02:19:16.229Z,1026.63
2018-12-30T02:19:56.959Z,1026.62
2018-12-30T02:20:37.687Z,1026.62
2018-12-30T02:21:18.492Z,1026.63
2018-12-30T02:21:59.330Z,1026.61
2018-12-30T02:22:40.119Z,1026.62
2018-12-30T02:23:20.826Z,1026.63
2018-12-30T02:24:01.597Z,1026.63
2018-12-30T02:24:42.398Z,1026.62
2018-12-30T02:25:23.096Z,1026.58
2018-12-30T02:26:03.781Z,1026.64
2018-12-30T02:26:44.505Z,1026.64
2018-12-30T02:27:25.261Z,1026.64
2018-12-30T02:28:06.070Z,1026.65
2018-12-30T02:28:46.852Z,1026.62
2018-12-30T02:29:27.606Z,1026.62
2018-12-30T02:30:08.369Z,1026.61
2018-12-30T02:30:49.107Z,1026.59
2018-12-30T02:31:29.828Z,1026.59
2018-12-30T02:32:10.663Z,1026.63
2018-12-30T02:32:51.380Z,1026.62
2018-12-30T02:33:32.147Z,1026.61
2018-12-30T02:34:12.919Z,1026.57
2018-12-30T02:34:53.706Z,1026.55
2018-12-30T02:35:34.551Z,1026.56
2018-12-30T02:36:15.290Z,1026.53
2018-12-30T02:36:56.098Z,1026.51
2018-12-30T02:37:36.800Z,1026.52
2018-12-30T02:38:17.575Z,1026.53
2018-12-30T02:38:58.346Z,1026.51
2018-12-30T02:39:39.114Z,1026.54
2018-12-30T02:40:19.889Z,1026.54
2018-12-30T02:41:00.625Z,1026.55
2018-12-30T02:41:41.409Z,1026.49
2018-12-30T02:42:22.223Z,1026.47
2018-12-30T02:43:02.986Z,1026.47
2018-12-30T02:43:43.706Z,1026.43
2018-12-30T02:44:24.469Z,1026.45
2018-12-30T02:45:05.263Z,1026.44
2018-12-30T02:45:46.052Z,1026.49
2018-12-30T02:46:26.782Z,1026.47
2018-12-30T02:47:07.521Z,1026.47
2018-12-30T02:47:48.327Z,1026.44
2018-12-30T02:48:29.150Z,1026.44
2018-12-30T02:49:09.903Z,1026.42
2018-12-30T02:49:50.641Z,1026.37
2018-12-30T02:50:31.505Z,1026.39
2018-12-30T02:51:12.291Z,1026.37
2018-12-30T02:51:53.012Z,1026.41
2018-12-30T02:52:33.775Z,1026.41
2018-12-30T02:53:14.537Z,1026.39
2018-12-30T02:53:55.346Z,1026.38
2018-12-30T02:54:36.159Z,1026.39
2018-12-30T02:55:16.942Z,1026.38
2018-12-30T02:55:57.691Z,1026.37
2018-12-30T02:56:38.424Z,1026.36
2018-12-30T02:57:19.130Z,1026.39
2018-12-30T02:57:59.953Z,1026.35
2018-12-30T02:58:40.712Z,1026.35
2018-12-30T02:59:21.434Z,1026.34
2018-12-30T03:00:02.264Z,1026.27
2018-12-30T03:00:43.062Z,1026.28
2018-12-30T03:01:23.878Z,1026.3
2018-12-30T03:02:04.644Z,1026.32
2018-12-30T03:02:45.342Z,1026.31
2018-12-30T03:03:26.063Z,1026.3
2018-12-30T03:04:06.864Z,1026.3
2018-12-30T03:04:47.681Z,1026.31
2018-12-30T03:05:28.469Z,1026.31
2018-12-30T03:06:09.233Z,1026.31
2018-12-30T03:06:49.960Z,1026.28
2018-12-30T03:07:30.726Z,1026.29
2018-12-30T03:08:11.517Z,1026.27
2018-12-30T03:08:52.219Z,1026.22
2018-12-30T03:09:32.968Z,1026.26
2018-12-30T03:10:13.715Z,1026.27
2018-12-30T03:10:54.512Z,1026.26
2018-12-30T03:11:35.291Z,1026.24
2018-12-30T03:12:16.065Z,1026.24
2018-12-30T03:12:56.799Z,1026.23
2018-12-30T03:13:37.506Z,1026.25
2018-12-30T03:14:18.201Z,1026.23
2018-12-30T03:14:58.972Z,1026.26
2018-12-30T03:15:39.750Z,1026.29
2018-12-30T03:16:20.471Z,1026.32
2018-12-30T03:17:01.203Z,1026.32
2018-12-30T03:17:42.009Z,1026.3
2018-12-30T03:18:22.876Z,1026.3
2018-12-30T03:19:03.645Z,1026.33
2018-12-30T03:19:44.369Z,1026.35
2018-12-30T03:20:25.120Z,1026.3
2018-12-30T03:21:05.912Z,1026.32
2018-12-30T03:21:46.632Z,1026.27
2018-12-30T03:22:27.372Z,1026.28
2018-12-30T03:23:08.111Z,1026.25
2018-12-30T03:23:48.928Z,1026.3
2018-12-30T03:24:29.757Z,1026.3
2018-12-30T03:25:10.475Z,1026.31
2018-12-30T03:25:51.253Z,1026.3
2018-12-30T03:26:32.019Z,1026.3
2018-12-30T03:27:12.793Z,1026.31
2018-12-30T03:27:53.515Z,1026.28
2018-12-30T03:28:34.245Z,1026.27
2018-12-30T03:29:14.925Z,1026.32
2018-12-30T03:29:55.687Z,1026.32
2018-12-30T03:30:36.571Z,1026.32
2018-12-30T03:31:17.395Z,1026.31
2018-12-30T03:31:58.213Z,1026.33
2018-12-30T03:32:38.905Z,1026.33
2018-12-30T03:33:19.710Z,1026.36
2018-12-30T03:34:00.489Z,1026.33
2018-12-30T03:34:41.209Z,1026.31
2018-12-30T03:35:21.930Z,1026.35
2018-12-30T03:36:02.631Z,1026.32
2018-12-30T03:36:43.391Z,1026.32
2018-12-30T03:37:24.149Z,1026.32
2018-12-30T03:38:04.934Z,1026.33
2018-12-30T03:38:45.700Z,1026.29
2018-12-30T03:39:26.474Z,1026.32
2018-12-30T03:40:07.165Z,1026.3
2018-12-30T03:40:47.873Z,1026.33
2018-12-30T03:41:28.701Z,1026.33
2018-12-30T03:42:09.483Z,1026.32
2018-12-30T03:42:50.237Z,1026.35
2018-12-30T03:43:31.100Z,1026.33
2018-12-30T03:44:11.888Z,1026.32
2018-12-30T03:44:52.735Z,1026.33
2018-12-30T03:45:33.492Z,1026.33
2018-12-30T03:46:14.239Z,1026.3
2018-12-30T03:46:54.961Z,1026.32
2018-12-30T03:47:35.756Z,1026.32
2018-12-30T03:48:16.535Z,1026.31
2018-12-30T03:48:57.321Z,1026.33
2018-12-30T03:49:38.090Z,1026.33
2018-12-30T03:50:18.839Z,1026.34
2018-12-30T03:50:59.673Z,1026.38
2018-12-30T03:51:40.451Z,1026.37
2018-12-30T03:52:21.166Z,1026.37
2018-12-30T03:53:01.913Z,1026.41
2018-12-30T03:53:42.648Z,1026.43
2018-12-30T03:54:23.488Z,1026.42
2018-12-30T03:55:04.301Z,1026.44
2018-12-30T03:55:45.010Z,1026.41
2018-12-30T03:56:25.816Z,1026.41
2018-12-30T03:57:06.605Z,1026.38
2018-12-30T03:57:47.417Z,1026.39
2018-12-30T03:58:28.162Z,1026.34
2018-12-30T03:59:08.845Z,1026.35
2018-12-30T03:59:49.689Z,1026.34
2018-12-30T04:00:30.429Z,1026.33
2018-12-30T04:01:11.145Z,1026.34
2018-12-30T04:01:51.891Z,1026.34
2018-12-30T04:02:32.592Z,1026.33
2018-12-30T04:03:13.379Z,1026.32
2018-12-30T04:03:54.175Z,1026.34
2018-12-30T04:04:34.997Z,1026.34
2018-12-30T04:05:15.709Z,1026.34
2018-12-30T04:05:56.447Z,1026.33
2018-12-30T04:06:37.179Z,1026.34
2018-12-30T04:07:17.989Z,1026.32
2018-12-30T04:07:58.780Z,1026.33
2018-12-30T04:08:39.522Z,1026.32
2018-12-30T04:09:20.368Z,1026.27
2018-12-30T04:10:01.174Z,1026.29
2018-12-30T04:10:41.975Z,1026.29
2018-12-30T04:11:22.726Z,1026.26
2018-12-30T04:12:03.454Z,1026.26
2018-12-30T04:12:44.277Z,1026.29
2018-12-30T04:13:25.069Z,1026.27
2018-12-30T04:14:05.759Z,1026.24
2018-12-30T04:14:46.499Z,1026.23
2018-12-30T04:15:27.189Z,1026.23
2018-12-30T04:16:08.008Z,1026.21
2018-12-30T04:16:48.819Z,1026.17
2018-12-30T04:17:29.514Z,1026.2
2018-12-30T04:18:10.297Z,1026.17
2018-12-30T04:18:51.101Z,1026.16
2018-12-30T04:19:31.921Z,1026.16
2018-12-30T04:20:12.674Z,1026.18
2018-12-30T04:20:53.409Z,1026.14
2018-12-30T04:21:34.134Z,1026.16
2018-12-30T04:22:16.907Z,1026.16
2018-12-30T04:22:55.708Z,1026.17
2018-12-30T04:23:36.517Z,1026.14
2018-12-30T04:24:17.287Z,1026.16
2018-12-30T04:24:58.009Z,1026.19
2018-12-30T04:25:38.744Z,1026.15
2018-12-30T04:26:19.560Z,1026.2
2018-12-30T04:27:00.315Z,1026.17
2018-12-30T04:27:41.092Z,1026.2
2018-12-30T04:28:21.824Z,1026.18
2018-12-30T04:29:02.641Z,1026.14
2018-12-30T04:29:43.404Z,1026.14
2018-12-30T04:30:24.175Z,1026.11
2018-12-30T04:31:04.893Z,1026.15
2018-12-30T04:31:45.734Z,1026.11
2018-12-30T04:32:26.593Z,1026.09
2018-12-30T04:33:07.327Z,1026.09
2018-12-30T04:33:48.012Z,1026.05
2018-12-30T04:34:28.804Z,1026.07
2018-12-30T04:35:09.599Z,1026.08
2018-12-30T04:35:50.272Z,1026.09
2018-12-30T04:36:31.030Z,1026.11
2018-12-30T04:37:11.708Z,1026.16
2018-12-30T04:37:52.520Z,1026.13
2018-12-30T04:38:33.256Z,1026.16
2018-12-30T04:39:14.042Z,1026.12
2018-12-30T04:39:54.768Z,1026.11
2018-12-30T04:40:35.461Z,1026.11
2018-12-30T04:41:16.198Z,1026.12
2018-12-30T04:41:56.930Z,1026.13
2018-12-30T04:42:37.745Z,1026.13
2018-12-30T04:43:19.630Z,1026.13
2018-12-30T04:43:59.199Z,1026.16
2018-12-30T04:44:39.984Z,1026.14
2018-12-30T04:45:20.830Z,1026.14
2018-12-30T04:46:01.575Z,1026.13
2018-12-30T04:46:42.320Z,1026.15
2018-12-30T04:47:23.067Z,1026.15
2018-12-30T04:48:03.808Z,1026.13
2018-12-30T04:48:44.656Z,1026.12
2018-12-30T04:49:25.401Z,1026.15
2018-12-30T04:50:06.250Z,1026.16
2018-12-30T04:50:47.036Z,1026.17
2018-12-30T04:51:27.815Z,1026.19
2018-12-30T04:52:08.641Z,1026.17
2018-12-30T04:52:49.386Z,1026.23
2018-12-30T04:53:30.093Z,1026.24
2018-12-30T04:54:10.794Z,1026.2
2018-12-30T04:54:51.542Z,1026.17
2018-12-30T04:55:32.327Z,1026.19
2018-12-30T04:56:13.113Z,1026.14
2018-12-30T04:56:53.882Z,1026.11
2018-12-30T04:57:34.610Z,1026.12
2018-12-30T04:58:15.337Z,1026.09
2018-12-30T04:58:56.063Z,1026.11
2018-12-30T04:59:36.855Z,1026.09
2018-12-30T05:00:17.647Z,1026.14
2018-12-30T05:00:58.429Z,1026.12
2018-12-30T05:01:39.206Z,1026.14
2018-12-30T05:02:19.972Z,1026.08
2018-12-30T05:03:00.817Z,1026.07
2018-12-30T05:03:41.519Z,1026.08
2018-12-30T05:04:22.234Z,1026.11
2018-12-30T05:05:03.037Z,1026.07
2018-12-30T05:05:43.754Z,1026.02
2018-12-30T05:06:24.480Z,1026.03
2018-12-30T05:07:05.219Z,1026.04
2018-12-30T05:07:45.924Z,1026.04
2018-12-30T05:08:26.744Z,1026.04
2018-12-30T05:09:07.479Z,1026.02
2018-12-30T05:09:48.235Z,1026.02
2018-12-30T05:10:29.012Z,1026.02
2018-12-30T05:11:09.772Z,1026
2018-12-30T05:11:50.551Z,1026.05
2018-12-30T05:12:31.298Z,1026
2018-12-30T05:13:12.035Z,1026.05
2018-12-30T05:13:52.744Z,1026.06
2018-12-30T05:14:33.582Z,1026.05
2018-12-30T05:15:14.341Z,1026.03
2018-12-30T05:15:55.168Z,1026.05
2018-12-30T05:16:35.948Z,1026.06
2018-12-30T05:17:16.689Z,1026.1
2018-12-30T05:17:57.514Z,1026.07
2018-12-30T05:18:38.307Z,1026.05
2018-12-30T05:19:19.011Z,1026.05
2018-12-30T05:19:59.830Z,1026.06
2018-12-30T05:20:40.509Z,1026.03
2018-12-30T05:21:21.329Z,1026.01
2018-12-30T05:22:02.099Z,1026
2018-12-30T05:22:42.901Z,1026.03
2018-12-30T05:23:23.718Z,1026.05
2018-12-30T05:24:04.454Z,1026.05
2018-12-30T05:24:45.167Z,1026.06
2018-12-30T05:25:25.939Z,1026.05
2018-12-30T05:26:06.762Z,1026.05
2018-12-30T05:26:47.496Z,1026.05
2018-12-30T05:27:28.233Z,1026.04
2018-12-30T05:28:09.009Z,1026.08
2018-12-30T05:28:49.802Z,1026.08
2018-12-30T05:29:30.636Z,1026.09
2018-12-30T05:30:11.325Z,1026.1
2018-12-30T05:30:52.010Z,1026.1
2018-12-30T05:31:32.713Z,1026.08
2018-12-30T05:32:13.482Z,1026.08
2018-12-30T05:32:54.264Z,1026.08
2018-12-30T05:33:35.041Z,1026.09
2018-12-30T05:34:15.804Z,1026.07
2018-12-30T05:34:56.554Z,1026.09
2018-12-30T05:35:37.379Z,1026.06
2018-12-30T05:36:18.151Z,1026.07
2018-12-30T05:36:58.848Z,1026.08
2018-12-30T05:37:39.575Z,1026.09
2018-12-30T05:38:20.311Z,1026.09
2018-12-30T05:39:01.122Z,1026.1
2018-12-30T05:39:41.916Z,1026.11
2018-12-30T05:40:22.655Z,1026.1
2018-12-30T05:41:03.405Z,1026.13
2018-12-30T05:41:44.210Z,1026.12
2018-12-30T05:42:25.053Z,1026.13
2018-12-30T05:43:05.804Z,1026.17
2018-12-30T05:43:46.553Z,1026.15
2018-12-30T05:44:27.358Z,1026.18
2018-12-30T05:45:08.128Z,1026.15
2018-12-30T05:45:48.810Z,1026.16
2018-12-30T05:46:29.531Z,1026.18
2018-12-30T05:47:10.271Z,1026.16
2018-12-30T05:47:51.059Z,1026.14
2018-12-30T05:48:31.836Z,1026.13
2018-12-30T05:49:12.615Z,1026.13
2018-12-30T05:49:53.329Z,1026.12
2018-12-30T05:50:34.048Z,1026.16
2018-12-30T05:51:14.802Z,1026.14
2018-12-30T05:51:55.617Z,1026.16
2018-12-30T05:52:41.694Z,1026.19
2018-12-30T05:53:17.138Z,1026.16
2018-12-30T05:53:57.932Z,1026.21
2018-12-30T05:54:38.732Z,1026.2
2018-12-30T05:55:19.531Z,1026.19
2018-12-30T05:56:00.316Z,1026.18
2018-12-30T05:56:41.070Z,1026.21
2018-12-30T05:57:21.817Z,1026.21
2018-12-30T05:58:02.546Z,1026.2
2018-12-30T05:58:43.337Z,1026.2
2018-12-30T05:59:24.123Z,1026.21
2018-12-30T06:00:04.975Z,1026.24
2018-12-30T06:00:45.719Z,1026.27
2018-12-30T06:01:26.505Z,1026.23
2018-12-30T06:02:07.337Z,1026.22
2018-12-30T06:02:48.102Z,1026.25
2018-12-30T06:03:28.877Z,1026.25
2018-12-30T06:04:09.612Z,1026.21
2018-12-30T06:04:50.401Z,1026.21
2018-12-30T06:05:31.249Z,1026.22
2018-12-30T06:06:11.985Z,1026.19
2018-12-30T06:06:52.765Z,1026.21
2018-12-30T06:07:33.477Z,1026.21
2018-12-30T06:08:14.204Z,1026.17
2018-12-30T06:08:54.922Z,1026.2
2018-12-30T06:09:35.688Z,1026.2
2018-12-30T06:10:16.430Z,1026.19
2018-12-30T06:10:57.135Z,1026.21
2018-12-30T06:11:37.896Z,1026.22
2018-12-30T06:12:18.698Z,1026.22
2018-12-30T06:12:59.514Z,1026.22
2018-12-30T06:13:40.203Z,1026.24
2018-12-30T06:14:20.934Z,1026.18
2018-12-30T06:15:01.741Z,1026.23
2018-12-30T06:15:42.467Z,1026.22
2018-12-30T06:16:23.235Z,1026.2
2018-12-30T06:17:03.933Z,1026.2
2018-12-30T06:17:44.659Z,1026.22
2018-12-30T06:18:25.527Z,1026.2
2018-12-30T06:19:06.251Z,1026.21
2018-12-30T06:19:47.052Z,1026.21
2018-12-30T06:20:27.836Z,1026.23
2018-12-30T06:21:08.573Z,1026.26
2018-12-30T06:21:49.392Z,1026.25
2018-12-30T06:22:30.101Z,1026.27
2018-12-30T06:23:10.846Z,1026.26
2018-12-30T06:23:51.566Z,1026.27
2018-12-30T06:24:32.351Z,1026.28
2018-12-30T06:25:13.163Z,1026.29
2018-12-30T06:25:53.959Z,1026.25
2018-12-30T06:26:34.664Z,1026.26
2018-12-30T06:27:15.438Z,1026.26
2018-12-30T06:27:56.217Z,1026.26
2018-12-30T06:28:36.995Z,1026.24
2018-12-30T06:29:17.694Z,1026.25
2018-12-30T06:29:58.461Z,1026.22
2018-12-30T06:30:39.195Z,1026.23
2018-12-30T06:31:20.025Z,1026.24
2018-12-30T06:32:00.809Z,1026.24
2018-12-30T06:32:41.509Z,1026.25
2018-12-30T06:33:22.331Z,1026.29
2018-12-30T06:34:03.100Z,1026.24
2018-12-30T06:34:43.900Z,1026.26
2018-12-30T06:35:24.650Z,1026.29
2018-12-30T06:36:05.380Z,1026.27
2018-12-30T06:36:46.226Z,1026.3
2018-12-30T06:37:26.945Z,1026.27
2018-12-30T06:38:07.679Z,1026.29
2018-12-30T06:38:48.380Z,1026.3
2018-12-30T06:39:29.155Z,1026.33
2018-12-30T06:40:11.375Z,1026.35
2018-12-30T06:40:50.722Z,1026.38
2018-12-30T06:41:31.496Z,1026.42
2018-12-30T06:42:12.227Z,1026.42
2018-12-30T06:42:52.913Z,1026.43
2018-12-30T06:43:33.652Z,1026.43
2018-12-30T06:44:14.414Z,1026.45
2018-12-30T06:44:55.139Z,1026.44
2018-12-30T06:45:35.885Z,1026.44
2018-12-30T06:46:16.683Z,1026.45
2018-12-30T06:46:57.444Z,1026.44
2018-12-30T06:47:38.253Z,1026.43
2018-12-30T06:48:18.937Z,1026.39
2018-12-30T06:48:59.695Z,1026.43
2018-12-30T06:49:40.533Z,1026.43
2018-12-30T06:50:21.248Z,1026.48
2018-12-30T06:51:01.953Z,1026.46
2018-12-30T06:51:42.626Z,1026.47
2018-12-30T06:52:23.402Z,1026.49
2018-12-30T06:53:04.219Z,1026.49
2018-12-30T06:53:44.944Z,1026.49
2018-12-30T06:54:25.688Z,1026.46
2018-12-30T06:55:06.467Z,1026.49
2018-12-30T06:55:47.313Z,1026.42
2018-12-30T06:56:28.059Z,1026.42
2018-12-30T06:57:08.776Z,1026.45
2018-12-30T06:57:49.509Z,1026.43
2018-12-30T06:58:30.235Z,1026.47
2018-12-30T06:59:11.057Z,1026.45
2018-12-30T06:59:52.812Z,1026.47
2018-12-30T07:00:33.608Z,1026.48
2018-12-30T07:01:14.333Z,1026.45
2018-12-30T07:01:55.082Z,1026.46
2018-12-30T07:02:35.908Z,1026.49
2018-12-30T07:03:16.714Z,1026.48
2018-12-30T07:03:57.413Z,1026.5
2018-12-30T07:04:38.133Z,1026.5
2018-12-30T07:05:18.853Z,1026.49
2018-12-30T07:05:59.669Z,1026.54
2018-12-30T07:06:40.386Z,1026.53
2018-12-30T07:07:21.191Z,1026.53
2018-12-30T07:08:01.924Z,1026.56
2018-12-30T07:08:42.685Z,1026.54
2018-12-30T07:09:23.377Z,1026.6
2018-12-30T07:10:04.218Z,1026.59
2018-12-30T07:10:44.951Z,1026.61
2018-12-30T07:11:25.707Z,1026.61
2018-12-30T07:12:06.425Z,1026.6
2018-12-30T07:12:47.214Z,1026.6
2018-12-30T07:13:28.108Z,1026.58
2018-12-30T07:14:08.834Z,1026.59
2018-12-30T07:14:49.576Z,1026.64
2018-12-30T07:15:30.283Z,1026.62
2018-12-30T07:16:11.050Z,1026.63
2018-12-30T07:16:51.875Z,1026.62
2018-12-30T07:17:32.620Z,1026.63
2018-12-30T07:18:13.448Z,1026.65
2018-12-30T07:18:54.180Z,1026.65
2018-12-30T07:19:34.988Z,1026.66
2018-12-30T07:20:15.782Z,1026.67
2018-12-30T07:20:56.509Z,1026.65
2018-12-30T07:21:37.265Z,1026.67
2018-12-30T07:22:17.958Z,1026.66
2018-12-30T07:23:05.575Z,1026.71
2018-12-30T07:23:39.585Z,1026.69
2018-12-30T07:24:20.341Z,1026.69
2018-12-30T07:25:01.113Z,1026.69
2018-12-30T07:25:41.947Z,1026.71
2018-12-30T07:26:22.737Z,1026.72
2018-12-30T07:27:03.491Z,1026.71
2018-12-30T07:27:44.193Z,1026.69
2018-12-30T07:28:24.955Z,1026.73
2018-12-30T07:29:05.750Z,1026.69
2018-12-30T07:29:46.473Z,1026.68
2018-12-30T07:30:27.199Z,1026.67
2018-12-30T07:31:07.938Z,1026.7
2018-12-30T07:31:48.725Z,1026.68
2018-12-30T07:32:29.540Z,1026.74
2018-12-30T07:33:10.418Z,1026.74
2018-12-30T07:33:51.101Z,1026.77
2018-12-30T07:34:31.787Z,1026.76
2018-12-30T07:35:12.579Z,1026.81
2018-12-30T07:35:53.302Z,1026.84
2018-12-30T07:36:34.117Z,1026.79
2018-12-30T07:37:14.813Z,1026.82
2018-12-30T07:37:55.588Z,1026.84
2018-12-30T07:38:36.403Z,1026.81
2018-12-30T07:39:17.199Z,1026.82
2018-12-30T07:39:57.994Z,1026.84
2018-12-30T07:40:38.693Z,1026.84
2018-12-30T07:41:19.447Z,1026.86
2018-12-30T07:42:00.139Z,1026.88
2018-12-30T07:42:40.948Z,1026.9
2018-12-30T07:43:21.731Z,1026.92
2018-12-30T07:44:02.508Z,1026.94
2018-12-30T07:44:43.223Z,1026.93
2018-12-30T07:45:23.941Z,1026.92
2018-12-30T07:46:04.726Z,1026.94
2018-12-30T07:46:45.457Z,1026.94
2018-12-30T07:47:26.184Z,1026.96
2018-12-30T07:48:06.883Z,1026.94
2018-12-30T07:48:47.607Z,1027
2018-12-30T07:49:28.391Z,1026.99
2018-12-30T07:50:09.193Z,1027.01
2018-12-30T07:50:49.964Z,1027.02
2018-12-30T07:51:30.683Z,1027
2018-12-30T07:52:11.411Z,1026.97
2018-12-30T07:52:52.152Z,1027
2018-12-30T07:53:32.961Z,1026.98
2018-12-30T07:54:13.730Z,1027
2018-12-30T07:54:54.485Z,1027.02
2018-12-30T07:55:35.303Z,1026.96
2018-12-30T07:56:16.086Z,1027.01
2018-12-30T07:56:56.905Z,1027
2018-12-30T07:57:37.669Z,1026.97
2018-12-30T07:58:18.416Z,1027.03
2018-12-30T07:58:59.281Z,1027
2018-12-30T07:59:40.031Z,1027.02
2018-12-30T08:00:20.760Z,1027.04
2018-12-30T08:01:01.464Z,1027.06
2018-12-30T08:01:42.188Z,1027.07
2018-12-30T08:02:23.010Z,1027.04
2018-12-30T08:03:03.766Z,1027.04
2018-12-30T08:03:44.517Z,1027.03
2018-12-30T08:04:25.373Z,1027.07
2018-12-30T08:05:06.135Z,1027.09
2018-12-30T08:05:46.924Z,1027.09
2018-12-30T08:06:27.652Z,1027.14
2018-12-30T08:07:08.392Z,1027.17
2018-12-30T08:07:49.151Z,1027.16
2018-12-30T08:08:30.003Z,1027.15
2018-12-30T08:09:10.834Z,1027.15
2018-12-30T08:09:51.670Z,1027.16
2018-12-30T08:10:32.525Z,1027.23
2018-12-30T08:11:13.129Z,1027.19
2018-12-30T08:11:53.928Z,1027.22
2018-12-30T08:12:34.642Z,1027.24
2018-12-30T08:13:15.394Z,1027.23
2018-12-30T08:13:56.148Z,1027.26
2018-12-30T08:14:36.885Z,1027.22
2018-12-30T08:15:17.672Z,1027.28